Time;durP1;ratioP1;P1;durP2;ratioP2;P2;SDS_P1;SDS_P2;PMS_P1;PMS_P2;Temp;Humidity;BMP_temperature;BMP_pressure;BME280_temperature;BME280_humidity;BME280_pressure;Samples;Min_cycle;Max_cycle;Signal;HPM_P1;HPM_P2
2022/03/07 00:00:31;;;;;;;9.40;5.65;;;3.80;56.50;;;;;;5113508;28;20024;-65
2022/03/07 00:02:57;;;;;;;10.50;5.80;;;3.80;56.80;;;;;;5113494;28;20567;-65
2022/03/07 00:05:23;;;;;;;11.70;6.10;;;3.80;56.70;;;;;;5113450;28;20032;-65
2022/03/07 00:07:48;;;;;;;10.05;5.57;;;3.80;56.60;;;;;;5113317;28;20092;-65
2022/03/07 00:10:14;;;;;;;7.13;4.85;;;3.90;56.30;;;;;;5113404;28;20067;-65
2022/03/07 00:12:39;;;;;;;10.40;5.72;;;3.90;56.10;;;;;;5113419;28;20013;-65
2022/03/07 00:15:05;;;;;;;9.18;5.75;;;3.90;56.00;;;;;;5113473;28;20443;-65
2022/03/07 00:17:31;;;;;;;9.57;5.65;;;3.90;56.10;;;;;;5113328;28;20038;-65
2022/03/07 00:19:56;;;;;;;11.15;5.40;;;3.90;57.10;;;;;;5117518;28;20088;-65
2022/03/07 00:22:22;;;;;;;7.85;5.03;;;3.90;55.90;;;;;;5117548;28;20039;-65
2022/03/07 00:24:48;;;;;;;9.45;5.72;;;3.70;56.10;;;;;;5117456;28;20036;-65
2022/03/07 00:27:13;;;;;;;9.32;5.55;;;3.70;56.30;;;;;;5117478;28;20036;-65
2022/03/07 00:29:39;;;;;;;8.85;5.03;;;3.70;56.50;;;;;;5117411;28;20020;-65
2022/03/07 00:32:05;;;;;;;10.18;5.50;;;3.70;56.20;;;;;;5117470;28;20080;-66
2022/03/07 00:34:30;;;;;;;8.23;5.05;;;3.70;56.10;;;;;;5117285;28;20070;-65
2022/03/07 00:36:56;;;;;;;9.00;5.50;;;3.70;55.90;;;;;;5117278;28;20028;-65
2022/03/07 00:39:22;;;;;;;9.88;5.28;;;3.70;56.00;;;;;;5117213;28;20028;-65
2022/03/07 00:41:47;;;;;;;9.93;5.65;;;3.80;55.90;;;;;;5117210;28;20029;-65
2022/03/07 00:44:13;;;;;;;7.68;5.30;;;3.60;55.70;;;;;;5117115;28;20039;-65
2022/03/07 00:46:39;;;;;;;9.95;5.88;;;3.40;56.10;;;;;;5117017;28;20071;-65
2022/03/07 00:49:04;;;;;;;11.15;5.22;;;3.40;56.80;;;;;;5117016;28;20020;-65
2022/03/07 00:51:30;;;;;;;6.97;5.00;;;3.40;56.80;;;;;;5116805;28;20044;-65
2022/03/07 00:53:56;;;;;;;8.68;5.05;;;3.50;56.60;;;;;;5116924;28;20032;-66
2022/03/07 00:56:21;;;;;;;8.68;5.47;;;3.50;56.80;;;;;;5116906;28;20024;-65
2022/03/07 00:58:47;;;;;;;10.30;5.88;;;3.30;57.10;;;;;;5116837;28;20028;-65
2022/03/07 01:01:13;;;;;;;11.73;6.10;;;3.10;57.70;;;;;;5116839;28;20039;-66
2022/03/07 01:03:39;;;;;;;10.35;5.35;;;3.20;58.00;;;;;;5116749;28;20056;-66
2022/03/07 01:06:05;;;;;;;8.93;5.63;;;3.30;57.70;;;;;;5116749;28;20032;-65
2022/03/07 01:08:31;;;;;;;10.15;5.53;;;3.40;57.50;;;;;;5116625;28;20020;-65
2022/03/07 01:10:56;;;;;;;8.93;5.38;;;3.40;57.00;;;;;;5116737;28;20088;-65
2022/03/07 01:13:22;;;;;;;8.88;5.57;;;3.40;56.80;;;;;;5116617;28;20028;-66
2022/03/07 01:15:48;;;;;;;8.52;5.35;;;3.40;56.80;;;;;;5116493;28;20043;-65
2022/03/07 01:18:14;;;;;;;10.93;7.13;;;3.00;57.10;;;;;;5098595;28;20035;-66
2022/03/07 01:20:40;;;;;;;9.32;5.80;;;2.70;58.10;;;;;;5116426;28;20033;-65
2022/03/07 01:23:05;;;;;;;9.95;5.38;;;2.60;58.70;;;;;;5098416;28;20050;-65
2022/03/07 01:25:31;;;;;;;15.00;6.35;;;2.60;59.10;;;;;;5116280;28;20040;-65
2022/03/07 01:27:57;;;;;;;13.80;7.07;;;2.80;59.20;;;;;;5116225;28;20039;-65
2022/03/07 01:30:23;;;;;;;16.38;7.88;;;2.90;58.90;;;;;;5114842;28;20027;-65
2022/03/07 01:32:48;;;;;;;20.50;7.70;;;3.00;58.50;;;;;;5116164;28;20127;-65
2022/03/07 01:35:14;;;;;;;16.25;7.57;;;3.10;59.40;;;;;;5116144;28;20013;-65
2022/03/07 01:37:40;;;;;;;14.73;6.85;;;3.10;58.10;;;;;;5116159;28;20111;-65
2022/03/07 01:40:06;;;;;;;13.77;6.47;;;2.90;57.70;;;;;;5116031;28;20020;-65
2022/03/07 01:42:32;;;;;;;10.20;5.47;;;2.70;58.60;;;;;;5116112;28;20028;-65
2022/03/07 01:45:12;;;;;;;11.50;5.88;;;2.60;58.90;;;;;;5115972;28;20058;-65
2022/03/07 01:47:39;;;;;;;7.60;5.35;;;2.50;59.30;;;;;;5115890;28;20509;-65
2022/03/07 01:50:07;;;;;;;10.98;6.20;;;2.50;59.60;;;;;;5097965;28;20016;-65
2022/03/07 01:52:36;;;;;;;8.65;5.25;;;2.60;59.40;;;;;;5115749;28;20036;-66
2022/03/07 01:55:02;;;;;;;12.65;5.93;;;2.70;59.20;;;;;;5115780;28;20023;-65
2022/03/07 01:57:30;;;;;;;9.68;6.25;;;2.80;58.70;;;;;;5115725;28;20035;-66
2022/03/07 01:59:56;;;;;;;8.38;5.43;;;2.80;58.70;;;;;;5115695;28;20044;-66
2022/03/07 02:02:22;;;;;;;10.25;5.85;;;2.80;58.80;;;;;;5115643;28;20402;-66
2022/03/07 02:04:47;;;;;;;10.25;5.90;;;2.80;58.60;;;;;;5115578;28;20071;-66
2022/03/07 02:07:13;;;;;;;10.23;5.68;;;2.90;58.70;;;;;;5115441;28;20040;-66
2022/03/07 02:09:38;;;;;;;8.85;5.60;;;2.80;58.80;;;;;;5115471;28;20020;-66
2022/03/07 02:12:04;;;;;;;9.63;6.25;;;2.60;59.10;;;;;;5115444;28;20109;-66
2022/03/07 02:14:30;;;;;;;9.60;5.85;;;2.60;59.30;;;;;;5115369;28;20058;-66
2022/03/07 02:16:56;;;;;;;12.57;6.18;;;2.60;59.30;;;;;;5097345;28;20032;-66
2022/03/07 02:19:22;;;;;;;9.48;5.95;;;2.70;59.40;;;;;;5115299;28;20024;-66
2022/03/07 02:21:49;;;;;;;9.85;5.50;;;2.70;59.80;;;;;;5115246;28;20038;-66
2022/03/07 02:24:16;;;;;;;9.85;5.45;;;2.70;59.80;;;;;;5115140;28;20054;-66
2022/03/07 02:26:42;;;;;;;9.35;6.15;;;2.80;60.00;;;;;;5115071;28;20056;-66
2022/03/07 02:29:11;;;;;;;12.68;6.13;;;2.90;59.80;;;;;;5115113;28;20172;-66
2022/03/07 02:31:37;;;;;;;9.93;5.93;;;2.80;59.70;;;;;;5115063;28;20026;-66
2022/03/07 02:34:04;;;;;;;10.05;6.18;;;2.80;59.70;;;;;;5114996;28;20043;-67
2022/03/07 02:36:30;;;;;;;11.70;6.38;;;2.80;59.90;;;;;;5114953;28;20028;-66
2022/03/07 02:38:55;;;;;;;10.57;6.13;;;2.90;59.90;;;;;;5115033;28;20034;-66
2022/03/07 02:41:21;;;;;;;7.82;5.57;;;2.90;60.80;;;;;;5114472;28;20024;-66
2022/03/07 02:43:47;;;;;;;9.73;5.85;;;2.80;60.00;;;;;;5096970;28;20039;-66
2022/03/07 02:46:12;;;;;;;10.02;6.57;;;2.80;60.00;;;;;;5114705;28;20020;-66
2022/03/07 02:48:39;;;;;;;9.52;5.97;;;2.60;60.10;;;;;;5114754;28;20042;-66
2022/03/07 02:51:05;;;;;;;13.32;6.82;;;2.50;60.30;;;;;;5114509;28;20067;-66
2022/03/07 02:53:30;;;;;;;9.68;6.25;;;2.50;60.70;;;;;;5114779;28;20020;-66
2022/03/07 02:55:56;;;;;;;9.48;5.60;;;2.30;60.90;;;;;;5114739;28;20032;-66
2022/03/07 02:58:22;;;;;;;11.70;6.22;;;2.40;61.30;;;;;;5114538;28;20050;-66
2022/03/07 03:00:48;;;;;;;10.90;6.20;;;2.40;61.60;;;;;;5114595;28;20028;-66
2022/03/07 03:03:13;;;;;;;13.20;6.15;;;2.30;61.60;;;;;;5114436;28;20024;-66
2022/03/07 03:05:39;;;;;;;10.40;6.30;;;2.40;61.70;;;;;;5114422;28;20040;-66
2022/03/07 03:08:05;;;;;;;10.82;6.10;;;2.40;61.60;;;;;;5114287;28;20048;-66
2022/03/07 03:10:30;;;;;;;11.70;6.38;;;2.40;61.50;;;;;;5114287;28;20028;-66
2022/03/07 03:12:56;;;;;;;9.38;5.95;;;2.40;61.60;;;;;;5114250;28;20020;-66
2022/03/07 03:15:22;;;;;;;11.20;6.10;;;2.30;61.80;;;;;;5114220;28;20038;-66
2022/03/07 03:17:48;;;;;;;12.25;6.55;;;2.10;62.10;;;;;;5114192;28;20081;-66
2022/03/07 03:20:15;;;;;;;11.57;6.70;;;2.10;62.70;;;;;;5114168;28;20028;-66
2022/03/07 03:22:42;;;;;;;10.55;6.03;;;2.00;62.80;;;;;;5114137;28;20036;-66
2022/03/07 03:25:09;;;;;;;12.15;6.57;;;2.00;62.80;;;;;;5113981;28;20054;-66
2022/03/07 03:27:35;;;;;;;10.80;6.32;;;2.00;62.80;;;;;;5113969;28;20055;-66
2022/03/07 03:30:01;;;;;;;11.70;6.53;;;2.10;62.60;;;;;;5113998;28;20038;-66
2022/03/07 03:32:29;;;;;;;11.00;5.63;;;2.20;62.10;;;;;;5113934;28;20031;-66
2022/03/07 03:34:55;;;;;;;10.32;6.30;;;2.30;61.60;;;;;;5114005;28;20043;-66
2022/03/07 03:37:22;;;;;;;11.93;6.50;;;2.30;61.40;;;;;;5113831;28;20028;-66
2022/03/07 03:39:47;;;;;;;14.77;6.88;;;2.20;61.50;;;;;;5113774;28;20031;-66
2022/03/07 03:42:13;;;;;;;10.13;6.60;;;2.10;62.00;;;;;;5113799;28;20035;-66
2022/03/07 03:44:39;;;;;;;10.13;6.63;;;1.90;62.70;;;;;;5113735;28;20070;-66
2022/03/07 03:47:05;;;;;;;11.65;6.32;;;1.90;63.10;;;;;;5095697;28;20047;-66
2022/03/07 03:49:30;;;;;;;10.43;6.07;;;1.90;63.00;;;;;;5113643;28;20031;-66
2022/03/07 03:51:56;;;;;;;10.15;6.35;;;1.90;62.60;;;;;;5113436;28;20045;-66
2022/03/07 03:54:22;;;;;;;10.95;6.32;;;1.90;62.50;;;;;;5113081;28;20028;-66
2022/03/07 03:56:49;;;;;;;12.95;6.32;;;2.00;62.40;;;;;;5113645;28;20490;-66
2022/03/07 03:59:15;;;;;;;11.52;6.55;;;2.00;62.30;;;;;;5113598;28;20056;-66
2022/03/07 04:01:44;;;;;;;10.63;6.47;;;2.00;62.20;;;;;;5113493;28;20036;-66
2022/03/07 04:04:13;;;;;;;10.63;6.40;;;2.00;62.20;;;;;;5113498;28;20020;-66
2022/03/07 04:06:40;;;;;;;10.18;6.25;;;2.10;62.30;;;;;;5113378;28;20079;-66
2022/03/07 04:09:07;;;;;;;12.95;6.10;;;2.00;62.40;;;;;;5113441;28;20016;-66
2022/03/07 04:11:32;;;;;;;11.68;6.38;;;2.00;62.60;;;;;;5113375;28;20091;-66
2022/03/07 04:13:58;;;;;;;10.18;6.82;;;2.00;62.90;;;;;;5113393;28;20036;-66
2022/03/07 04:16:24;;;;;;;15.60;7.22;;;2.00;62.90;;;;;;5113368;28;20051;-66
2022/03/07 04:18:49;;;;;;;10.57;6.43;;;2.10;62.70;;;;;;5113330;28;20036;-66
2022/03/07 04:21:15;;;;;;;12.60;6.30;;;2.10;62.50;;;;;;5113317;28;20040;-66
2022/03/07 04:23:40;;;;;;;12.35;6.68;;;2.10;62.60;;;;;;5113205;28;20498;-66
2022/03/07 04:26:06;;;;;;;12.35;6.82;;;2.10;62.60;;;;;;5113210;28;20036;-66
2022/03/07 04:28:32;;;;;;;11.95;6.53;;;1.90;63.10;;;;;;5095480;28;20024;-66
2022/03/07 04:30:58;;;;;;;14.00;6.75;;;1.80;63.20;;;;;;5113281;28;20018;-66
2022/03/07 04:33:24;;;;;;;11.85;7.25;;;1.60;63.80;;;;;;5113171;28;20024;-66
2022/03/07 04:35:50;;;;;;;11.65;6.70;;;1.40;64.30;;;;;;5113144;28;20079;-66
2022/03/07 04:38:16;;;;;;;13.48;6.15;;;1.40;64.60;;;;;;5113268;28;20029;-66
2022/03/07 04:40:41;;;;;;;12.98;6.53;;;1.50;64.20;;;;;;5113134;28;20513;-66
2022/03/07 04:43:07;;;;;;;11.55;6.55;;;1.50;64.00;;;;;;5095213;28;20023;-66
2022/03/07 04:45:33;;;;;;;14.32;6.82;;;1.50;64.10;;;;;;5113206;28;20465;-65
2022/03/07 04:47:58;;;;;;;10.88;6.47;;;1.60;64.10;;;;;;5112989;28;20057;-65
2022/03/07 04:50:24;;;;;;;12.02;6.18;;;1.60;63.90;;;;;;5113052;28;20028;-66
2022/03/07 04:52:50;;;;;;;11.18;6.32;;;1.50;63.90;;;;;;5112904;28;20048;-66
2022/03/07 04:55:15;;;;;;;11.00;6.35;;;1.60;63.80;;;;;;5113003;28;20032;-66
2022/03/07 04:57:43;;;;;;;11.35;6.25;;;1.60;63.50;;;;;;5112990;28;20028;-66
2022/03/07 05:00:10;;;;;;;13.00;6.57;;;1.60;63.60;;;;;;5112937;28;20436;-66
2022/03/07 05:02:36;;;;;;;15.43;6.72;;;1.60;63.70;;;;;;5112854;28;20028;-66
2022/03/07 05:05:02;;;;;;;10.93;6.88;;;1.60;63.70;;;;;;5115143;28;20088;-65
2022/03/07 05:07:27;;;;;;;11.65;6.03;;;1.60;63.60;;;;;;5116631;28;20024;-65
2022/03/07 05:09:53;;;;;;;12.85;6.47;;;1.70;63.60;;;;;;5116621;28;20032;-65
2022/03/07 05:12:19;;;;;;;11.35;6.68;;;1.80;63.50;;;;;;5116628;28;20134;-66
2022/03/07 05:14:44;;;;;;;13.38;6.95;;;1.60;63.30;;;;;;5116589;28;20032;-66
2022/03/07 05:17:10;;;;;;;11.77;6.38;;;1.50;63.60;;;;;;5116557;28;20088;-66
2022/03/07 05:19:35;;;;;;;11.45;6.72;;;1.50;63.60;;;;;;5116434;28;20032;-66
2022/03/07 05:22:01;;;;;;;12.93;6.82;;;1.40;63.70;;;;;;5116553;28;20043;-66
2022/03/07 05:24:27;;;;;;;11.68;6.50;;;1.50;64.00;;;;;;5116417;28;20028;-66
2022/03/07 05:26:53;;;;;;;11.50;6.68;;;1.50;64.00;;;;;;5098344;28;20042;-66
2022/03/07 05:29:19;;;;;;;11.95;6.53;;;1.60;63.70;;;;;;5116303;28;20034;-66
2022/03/07 05:31:44;;;;;;;14.32;6.78;;;1.60;63.50;;;;;;5116308;28;20027;-66
2022/03/07 05:34:10;;;;;;;12.77;6.93;;;1.60;63.60;;;;;;5116176;28;20056;-66
2022/03/07 05:36:36;;;;;;;15.32;7.75;;;1.60;63.80;;;;;;5116163;28;20050;-67
2022/03/07 05:39:03;;;;;;;14.60;7.03;;;1.50;64.10;;;;;;5116159;28;20025;-66
2022/03/07 05:41:29;;;;;;;11.90;6.85;;;1.60;63.90;;;;;;5116053;28;20028;-66
2022/03/07 05:43:55;;;;;;;12.80;7.22;;;1.60;63.80;;;;;;5116003;28;20119;-66
2022/03/07 05:46:20;;;;;;;11.00;6.97;;;1.60;63.60;;;;;;5115860;28;20036;-66
2022/03/07 05:48:46;;;;;;;13.95;6.75;;;1.60;63.60;;;;;;5115917;28;20024;-66
2022/03/07 05:51:12;;;;;;;14.60;7.63;;;1.60;63.50;;;;;;5115613;28;20028;-66
2022/03/07 05:53:38;;;;;;;13.80;7.22;;;1.60;64.30;;;;;;5115881;28;20036;-66
2022/03/07 05:56:04;;;;;;;15.88;7.13;;;1.60;64.50;;;;;;5115825;28;20020;-66
2022/03/07 05:58:29;;;;;;;11.02;6.93;;;1.40;63.70;;;;;;5115730;28;20025;-66
2022/03/07 06:00:55;;;;;;;13.60;7.07;;;1.20;64.00;;;;;;5115723;28;20020;-66
2022/03/07 06:03:21;;;;;;;13.18;6.93;;;1.10;64.40;;;;;;5115643;28;20088;-66
2022/03/07 06:05:46;;;;;;;13.27;6.90;;;1.20;64.60;;;;;;5097797;28;20028;-66
2022/03/07 06:08:12;;;;;;;13.95;7.10;;;1.10;64.40;;;;;;5115491;28;20079;-66
2022/03/07 06:10:38;;;;;;;11.73;7.07;;;1.10;64.50;;;;;;5115498;28;20050;-66
2022/03/07 06:13:03;;;;;;;14.52;7.45;;;1.10;64.70;;;;;;5115542;28;20047;-66
2022/03/07 06:15:30;;;;;;;14.32;7.20;;;1.20;64.50;;;;;;5114761;28;20043;-66
2022/03/07 06:17:58;;;;;;;16.48;7.40;;;1.20;64.30;;;;;;5115195;28;20028;-66
2022/03/07 06:20:24;;;;;;;15.45;7.68;;;1.20;64.10;;;;;;5115283;28;20024;-66
2022/03/07 06:22:50;;;;;;;12.65;7.60;;;1.20;64.20;;;;;;5115218;28;20055;-66
2022/03/07 06:25:16;;;;;;;11.10;7.38;;;1.20;64.40;;;;;;5115164;28;20034;-66
2022/03/07 06:27:42;;;;;;;14.90;7.35;;;1.10;64.50;;;;;;5115101;28;20490;-66
2022/03/07 06:30:08;;;;;;;13.35;7.43;;;1.10;64.40;;;;;;5115132;28;20028;-66
2022/03/07 06:32:38;;;;;;;16.83;7.13;;;1.10;64.80;;;;;;5097086;28;20032;-66
2022/03/07 06:35:04;;;;;;;13.60;7.57;;;1.10;65.00;;;;;;5115069;28;20032;-67
2022/03/07 06:37:30;;;;;;;14.95;8.32;;;1.20;65.00;;;;;;5114982;28;20028;-66
2022/03/07 06:39:56;;;;;;;15.95;8.10;;;1.20;65.00;;;;;;5114921;28;20028;-67
2022/03/07 06:42:22;;;;;;;13.38;7.75;;;1.00;65.20;;;;;;5114877;28;20073;-66
2022/03/07 06:44:48;;;;;;;12.60;7.50;;;1.10;65.40;;;;;;5114780;28;20028;-67
2022/03/07 06:47:13;;;;;;;13.93;7.97;;;1.00;65.20;;;;;;5114724;28;20055;-67
2022/03/07 06:49:40;;;;;;;12.55;7.28;;;1.00;65.00;;;;;;5114716;28;20020;-67
2022/03/07 06:52:06;;;;;;;16.58;7.50;;;1.10;65.10;;;;;;5114391;28;20044;-67
2022/03/07 06:54:32;;;;;;;15.50;7.50;;;1.10;64.90;;;;;;5114648;28;20097;-67
2022/03/07 06:56:58;;;;;;;16.83;8.05;;;1.10;64.80;;;;;;5096756;28;20020;-67
2022/03/07 06:59:24;;;;;;;16.25;7.90;;;1.00;65.20;;;;;;5114448;28;20035;-67
2022/03/07 07:01:51;;;;;;;15.13;7.35;;;1.00;65.20;;;;;;5114428;28;20032;-67
2022/03/07 07:04:17;;;;;;;16.02;8.15;;;1.10;65.60;;;;;;5114437;28;20046;-67
2022/03/07 07:06:43;;;;;;;13.70;7.82;;;1.10;65.90;;;;;;5114442;28;20032;-67
2022/03/07 07:09:08;;;;;;;15.40;7.88;;;1.20;65.50;;;;;;5114388;28;20042;-67
2022/03/07 07:11:36;;;;;;;16.02;8.98;;;1.30;65.60;;;;;;5114307;28;20039;-67
2022/03/07 07:14:02;;;;;;;16.15;8.48;;;1.30;65.50;;;;;;5114278;28;20019;-66
2022/03/07 07:16:28;;;;;;;14.55;8.55;;;1.40;65.60;;;;;;5114233;28;20127;-66
2022/03/07 07:18:53;;;;;;;17.33;8.65;;;1.50;65.80;;;;;;5114185;28;20024;-67
2022/03/07 07:21:19;;;;;;;16.80;9.13;;;1.50;66.50;;;;;;5114154;28;20047;-67
2022/03/07 07:23:45;;;;;;;17.42;8.55;;;1.40;66.50;;;;;;5114043;28;20028;-67
2022/03/07 07:26:10;;;;;;;15.60;8.05;;;1.40;66.40;;;;;;5095989;28;20188;-66
2022/03/07 07:28:36;;;;;;;19.17;8.77;;;1.50;66.40;;;;;;5114014;28;20051;-67
2022/03/07 07:31:03;;;;;;;15.18;9.13;;;1.60;66.40;;;;;;5113949;28;20039;-64
2022/03/07 07:33:29;;;;;;;19.52;9.13;;;1.60;66.40;;;;;;5113941;28;20024;-65
2022/03/07 07:35:55;;;;;;;17.13;9.02;;;1.70;66.30;;;;;;5113954;28;20021;-66
2022/03/07 07:38:21;;;;;;;15.85;8.77;;;1.80;66.30;;;;;;5113994;28;20035;-65
2022/03/07 07:40:48;;;;;;;20.23;9.48;;;1.90;66.90;;;;;;5113930;28;20034;-65
2022/03/07 07:43:17;;;;;;;16.90;8.40;;;1.90;66.90;;;;;;5113800;28;20031;-66
2022/03/07 07:45:43;;;;;;;14.40;8.57;;;2.00;67.40;;;;;;5113778;28;20024;-65
2022/03/07 07:48:09;;;;;;;16.38;9.35;;;2.00;67.20;;;;;;5113644;28;20024;-65
2022/03/07 07:50:34;;;;;;;20.67;9.82;;;2.10;67.70;;;;;;5113568;28;20055;-66
2022/03/07 07:53:00;;;;;;;18.48;9.32;;;2.10;67.50;;;;;;5113516;28;20131;-66
2022/03/07 07:55:25;;;;;;;17.38;9.68;;;2.20;67.30;;;;;;5113622;28;20028;-66
2022/03/07 07:57:51;;;;;;;21.08;9.52;;;2.30;67.10;;;;;;5113647;28;20054;-65
2022/03/07 08:00:20;;;;;;;17.23;9.10;;;2.40;66.90;;;;;;5113536;28;20024;-65
2022/03/07 08:02:49;;;;;;;19.60;10.40;;;2.50;67.00;;;;;;5113630;28;20031;-65
2022/03/07 08:05:17;;;;;;;17.75;10.02;;;2.60;67.20;;;;;;5113509;28;20092;-66
2022/03/07 08:07:43;;;;;;;17.38;9.65;;;2.60;67.10;;;;;;5113363;28;20040;-65
2022/03/07 08:10:14;;;;;;;17.38;9.48;;;2.70;67.10;;;;;;5113292;28;20035;-66
2022/03/07 08:12:40;;;;;;;19.17;10.35;;;2.80;67.10;;;;;;5113316;28;20087;-66
2022/03/07 08:15:11;;;;;;;18.17;10.00;;;2.90;67.10;;;;;;5113338;28;20028;-65
2022/03/07 08:17:49;;;;;;;18.40;10.27;;;3.00;67.40;;;;;;5113385;28;20020;-66
2022/03/07 08:20:22;;;;;;;18.38;9.60;;;3.10;67.50;;;;;;5113270;28;20035;-66
2022/03/07 08:22:49;;;;;;;18.92;10.45;;;3.30;67.50;;;;;;5113313;28;20012;-66
2022/03/07 08:25:15;;;;;;;17.50;9.77;;;3.40;67.50;;;;;;5113225;28;20046;-66
2022/03/07 08:27:41;;;;;;;16.52;10.00;;;3.50;67.30;;;;;;5113211;28;20044;-66
2022/03/07 08:30:12;;;;;;;18.52;10.60;;;3.70;67.50;;;;;;5113249;28;20027;-65
2022/03/07 08:32:38;;;;;;;19.98;10.45;;;3.80;67.20;;;;;;5113272;28;20107;-66
2022/03/07 08:35:05;;;;;;;20.02;10.13;;;4.00;67.20;;;;;;5113222;28;20021;-66
2022/03/07 08:37:32;;;;;;;18.17;9.68;;;4.20;66.80;;;;;;5113149;28;20043;-66
2022/03/07 08:39:58;;;;;;;14.35;9.20;;;4.30;66.50;;;;;;5115450;28;20157;-66
2022/03/07 08:42:24;;;;;;;17.00;10.15;;;4.50;66.10;;;;;;5117192;28;20024;-66
2022/03/07 08:44:51;;;;;;;16.40;9.27;;;4.60;65.70;;;;;;5117143;28;20035;-66
2022/03/07 08:47:17;;;;;;;14.00;9.48;;;4.70;65.60;;;;;;5117005;28;20020;-66
2022/03/07 08:49:42;;;;;;;17.20;9.05;;;4.80;65.30;;;;;;5117043;28;20012;-66
2022/03/07 08:52:09;;;;;;;15.60;9.43;;;4.90;65.00;;;;;;5116820;28;20056;-66
2022/03/07 08:54:35;;;;;;;14.77;8.40;;;5.00;64.70;;;;;;5117021;28;20079;-66
2022/03/07 08:57:01;;;;;;;15.18;8.38;;;5.20;64.40;;;;;;5116904;28;20036;-66
2022/03/07 08:59:28;;;;;;;14.35;8.50;;;5.30;63.80;;;;;;5116874;28;20035;-66
2022/03/07 09:01:56;;;;;;;12.52;6.35;;;5.40;63.00;;;;;;5116806;28;20024;-66
2022/03/07 09:04:22;;;;;;;11.35;5.95;;;5.50;61.50;;;;;;5116758;28;20028;-66
2022/03/07 09:06:47;;;;;;;13.10;7.07;;;5.30;57.60;;;;;;5116653;28;20028;-66
2022/03/07 09:09:13;;;;;;;11.48;6.78;;;5.30;58.30;;;;;;5116623;28;20059;-66
2022/03/07 09:11:38;;;;;;;10.80;6.53;;;5.30;57.60;;;;;;5116763;28;20044;-66
2022/03/07 09:14:04;;;;;;;11.73;6.47;;;5.30;58.00;;;;;;5116536;28;20049;-66
2022/03/07 09:16:30;;;;;;;11.45;6.80;;;5.40;58.30;;;;;;5116540;28;20035;-66
2022/03/07 09:18:55;;;;;;;10.70;6.05;;;5.40;58.20;;;;;;5116469;28;20028;-66
2022/03/07 09:21:21;;;;;;;11.90;6.22;;;5.40;58.10;;;;;;5116539;28;20110;-66
2022/03/07 09:23:47;;;;;;;9.32;5.97;;;5.30;57.80;;;;;;5116429;28;20035;-66
2022/03/07 09:26:13;;;;;;;8.50;5.43;;;5.30;56.20;;;;;;5116282;28;20024;-66
2022/03/07 09:28:39;;;;;;;17.23;7.97;;;5.30;55.00;;;;;;5116324;28;20046;-66
2022/03/07 09:31:06;;;;;;;8.25;5.97;;;5.30;55.00;;;;;;5116259;28;20016;-66
2022/03/07 09:33:32;;;;;;;10.13;6.43;;;5.40;54.90;;;;;;5116386;28;20036;-66
2022/03/07 09:35:59;;;;;;;9.93;6.63;;;5.40;57.20;;;;;;5116163;28;20028;-66
2022/03/07 09:38:27;;;;;;;9.25;5.97;;;5.50;56.40;;;;;;5116144;28;20078;-66
2022/03/07 09:40:54;;;;;;;12.25;7.38;;;5.60;57.60;;;;;;5098094;28;20028;-66
2022/03/07 09:43:20;;;;;;;11.55;6.95;;;5.80;56.80;;;;;;5116126;28;20052;-66
2022/03/07 09:45:46;;;;;;;5.88;4.40;;;5.80;56.40;;;;;;5115977;28;20055;-66
2022/03/07 09:48:12;;;;;;;9.45;6.40;;;5.90;55.00;;;;;;5115866;28;20386;-66
2022/03/07 09:50:42;;;;;;;9.30;6.10;;;5.80;55.40;;;;;;5114673;28;20026;-66
2022/03/07 09:53:08;;;;;;;8.65;5.40;;;5.90;54.00;;;;;;5094480;28;20056;-66
2022/03/07 09:55:34;;;;;;;9.15;5.45;;;6.00;54.60;;;;;;5095465;28;20032;-66
2022/03/07 09:57:59;;;;;;;9.18;6.07;;;6.00;53.60;;;;;;5095418;28;20032;-66
2022/03/07 10:00:25;;;;;;;9.13;4.80;;;6.10;52.80;;;;;;5095537;28;20416;-66
2022/03/07 10:02:57;;;;;;;5.70;3.90;;;6.20;54.00;;;;;;5095348;28;20084;-66
2022/03/07 10:05:26;;;;;;;8.88;5.80;;;6.30;51.40;;;;;;5095326;28;20031;-66
2022/03/07 10:07:51;;;;;;;9.05;4.88;;;6.40;52.00;;;;;;5095145;28;20536;-66
2022/03/07 10:10:17;;;;;;;9.38;4.68;;;6.50;53.30;;;;;;5095317;28;20032;-66
2022/03/07 10:12:48;;;;;;;6.38;4.55;;;6.60;52.20;;;;;;5095136;28;20031;-66
2022/03/07 10:15:17;;;;;;;8.13;4.95;;;6.70;52.00;;;;;;5095139;28;20021;-66
2022/03/07 10:17:51;;;;;;;8.40;5.05;;;6.80;51.50;;;;;;5095081;28;20455;-66
2022/03/07 10:20:19;;;;;;;7.53;4.85;;;6.80;52.10;;;;;;5095051;28;20051;-66
2022/03/07 10:23:11;;;;;;;8.57;4.80;;;7.00;52.10;;;;;;5094900;28;20020;-66
2022/03/07 10:25:38;;;;;;;8.43;4.60;;;7.10;51.30;;;;;;5091973;28;20108;-66
2022/03/07 10:28:05;;;;;;;7.60;4.70;;;7.10;51.40;;;;;;5094790;28;20025;-66
2022/03/07 10:30:32;;;;;;;6.90;4.40;;;7.20;51.30;;;;;;5094785;28;20017;-66
2022/03/07 10:33:05;;;;;;;6.97;4.55;;;7.20;49.50;;;;;;5094718;28;20020;-66
2022/03/07 10:35:32;;;;;;;;;;;7.10;49.00;;;;;;5095271;28;20076;-66
2022/03/07 10:38:03;;;;;;;8.73;4.82;;;7.20;48.40;;;;;;5094680;28;19908;-66
2022/03/07 10:40:31;;;;;;;8.88;4.80;;;7.00;48.10;;;;;;5094652;28;20031;-66
2022/03/07 10:43:00;;;;;;;10.02;5.00;;;7.00;49.70;;;;;;5094592;28;20020;-66
2022/03/07 10:45:27;;;;;;;7.60;4.90;;;7.10;51.00;;;;;;5094505;28;20027;-66
2022/03/07 10:47:54;;;;;;;9.85;5.45;;;7.10;50.20;;;;;;5094366;28;20021;-66
2022/03/07 10:50:23;;;;;;;8.57;5.82;;;7.20;51.00;;;;;;5094381;28;20032;-66
2022/03/07 10:52:58;;;;;;;7.45;5.28;;;7.20;48.00;;;;;;5109723;28;20048;-66
2022/03/07 10:55:26;;;;;;;8.90;5.50;;;7.10;48.90;;;;;;5114722;28;20084;-66
2022/03/07 10:57:52;;;;;;;7.60;5.40;;;7.20;50.70;;;;;;5114531;28;20539;-66
2022/03/07 11:00:18;;;;;;;7.10;5.00;;;7.30;50.20;;;;;;5114539;28;20032;-66
2022/03/07 11:02:46;;;;;;;9.00;5.63;;;7.40;49.70;;;;;;5114186;28;20028;-66
2022/03/07 11:05:13;;;;;;;8.00;5.30;;;7.40;48.60;;;;;;5114426;28;20088;-66
2022/03/07 11:07:44;;;;;;;7.90;4.97;;;7.50;49.60;;;;;;5114293;28;20083;-66
2022/03/07 11:10:13;;;;;;;7.93;4.93;;;7.50;48.10;;;;;;5114505;28;20016;-66
2022/03/07 11:12:39;;;;;;;7.60;5.18;;;7.50;49.10;;;;;;5114258;28;20016;-66
2022/03/07 11:15:10;;;;;;;7.55;5.68;;;7.60;48.60;;;;;;5114251;28;20050;-66
2022/03/07 11:17:44;;;;;;;9.80;5.07;;;7.70;50.30;;;;;;5114266;28;20034;-66
2022/03/07 11:20:14;;;;;;;6.50;4.18;;;7.70;48.50;;;;;;5114141;28;20028;-66
2022/03/07 11:22:40;;;;;;;10.02;5.57;;;7.60;47.80;;;;;;5114094;28;20028;-66
2022/03/07 11:25:08;;;;;;;7.78;5.20;;;7.60;48.50;;;;;;5114001;28;20039;-66
2022/03/07 11:27:36;;;;;;;7.22;5.05;;;7.80;50.40;;;;;;5113949;28;20035;-66
2022/03/07 11:30:13;;;;;;;8.13;5.05;;;8.00;49.70;;;;;;5096068;28;20024;-66
2022/03/07 11:32:39;;;;;;;7.97;4.93;;;8.00;49.00;;;;;;5113978;28;20019;-66
2022/03/07 11:35:05;;;;;;;8.10;4.82;;;8.10;48.30;;;;;;5113883;28;20035;-66
2022/03/07 11:37:32;;;;;;;9.13;5.57;;;8.20;49.10;;;;;;5113838;28;20039;-66
2022/03/07 11:39:58;;;;;;;6.80;4.93;;;8.40;47.20;;;;;;5113854;28;20178;-66
2022/03/07 11:42:37;;;;;;;8.18;5.40;;;8.40;48.30;;;;;;5113767;28;20032;-66
2022/03/07 11:45:16;;;;;;;8.52;5.50;;;8.40;48.10;;;;;;5113644;28;20053;-66
2022/03/07 11:47:42;;;;;;;8.48;5.40;;;8.50;48.20;;;;;;5113649;28;20039;-66
2022/03/07 11:50:09;;;;;;;9.07;5.93;;;8.60;47.40;;;;;;5113657;28;20028;-66
2022/03/07 11:52:35;;;;;;;8.38;5.60;;;8.60;47.60;;;;;;5113377;28;20052;-66
2022/03/07 11:55:12;;;;;;;11.30;5.72;;;8.70;47.80;;;;;;5113621;28;20020;-66
2022/03/07 11:57:46;;;;;;;7.95;5.78;;;8.80;48.20;;;;;;5113647;28;20028;-66
2022/03/07 12:00:22;;;;;;;9.27;5.57;;;9.00;47.70;;;;;;5113565;28;20039;-66
2022/03/07 12:02:51;;;;;;;11.65;5.93;;;9.00;48.20;;;;;;5113604;28;20031;-66
2022/03/07 12:05:23;;;;;;;7.53;5.90;;;9.20;47.40;;;;;;5113497;28;20016;-66
2022/03/07 12:07:49;;;;;;;11.23;6.35;;;8.90;44.00;;;;;;5113378;28;20028;-66
2022/03/07 12:10:15;;;;;;;7.78;5.25;;;8.90;46.30;;;;;;5113402;28;20099;-66
2022/03/07 12:12:41;;;;;;;8.32;5.63;;;9.00;46.20;;;;;;5113433;28;20133;-66
2022/03/07 12:15:09;;;;;;;9.23;5.82;;;9.00;46.30;;;;;;5112706;28;20024;-66
2022/03/07 12:17:35;;;;;;;8.23;5.40;;;9.10;45.80;;;;;;5095405;28;20035;-66
2022/03/07 12:20:00;;;;;;;8.32;5.53;;;9.10;46.00;;;;;;5113322;28;20032;-66
2022/03/07 12:22:28;;;;;;;8.68;6.18;;;9.20;46.60;;;;;;5113311;28;20030;-66
2022/03/07 12:25:02;;;;;;;8.52;6.13;;;9.30;45.90;;;;;;5113083;28;20020;-66
2022/03/07 12:27:30;;;;;;;9.00;6.05;;;9.40;46.40;;;;;;5113341;28;20028;-66
2022/03/07 12:29:56;;;;;;;7.65;5.55;;;9.40;45.00;;;;;;5113284;28;20382;-66
2022/03/07 12:32:21;;;;;;;8.57;5.97;;;9.40;45.50;;;;;;5113214;28;20039;-66
2022/03/07 12:34:47;;;;;;;11.13;5.85;;;9.50;45.70;;;;;;5095530;28;20047;-66
2022/03/07 12:37:22;;;;;;;9.75;5.82;;;9.50;45.50;;;;;;5113121;28;20118;-66
2022/03/07 12:40:00;;;;;;;8.75;5.35;;;9.60;44.90;;;;;;5113250;28;20028;-66
2022/03/07 12:42:29;;;;;;;9.48;5.38;;;9.60;44.70;;;;;;5113091;28;20035;-66
2022/03/07 12:44:59;;;;;;;9.85;6.25;;;9.60;44.50;;;;;;5113063;28;20024;-66
2022/03/07 12:47:36;;;;;;;11.32;6.03;;;9.60;45.10;;;;;;5113058;28;20531;-66